createdAt,value
2022-09-04T00:00:10.554Z,18.21
2022-09-04T00:01:55.891Z,18.16
2022-09-04T00:03:39.817Z,18.12
2022-09-04T00:05:20.585Z,18.20
2022-09-04T00:07:03.356Z,18.16
2022-09-04T00:08:57.182Z,18.18
2022-09-04T00:10:38.282Z,18.19
2022-09-04T00:12:11.883Z,18.21
2022-09-04T00:13:48.796Z,18.18
2022-09-04T00:15:26.926Z,18.22
2022-09-04T00:17:04.196Z,18.23
2022-09-04T00:18:41.475Z,18.25
2022-09-04T00:20:30.049Z,18.24
2022-09-04T00:22:11.399Z,18.22
2022-09-04T00:23:50.026Z,18.22
2022-09-04T00:25:31.683Z,18.24
2022-09-04T00:27:11.940Z,18.26
2022-09-04T00:28:49.447Z,18.29
2022-09-04T00:30:24.544Z,18.34
2022-09-04T00:32:08.315Z,18.31
2022-09-04T00:33:50.645Z,18.36
2022-09-04T00:35:31.473Z,18.33
2022-09-04T00:37:08.013Z,18.37
2022-09-04T00:38:46.423Z,18.37
2022-09-04T00:40:31.207Z,18.30
2022-09-04T00:42:24.056Z,18.29
2022-09-04T00:44:23.436Z,18.26
2022-09-04T00:46:24.595Z,18.21
2022-09-04T00:48:27.805Z,18.24
2022-09-04T00:50:29.253Z,18.25
2022-09-04T00:52:11.112Z,18.27
2022-09-04T00:54:10.682Z,18.25
2022-09-04T00:56:03.246Z,18.25
2022-09-04T00:58:08.574Z,18.32
2022-09-04T01:00:17.764Z,18.34
2022-09-04T01:01:55.986Z,18.35
2022-09-04T01:03:51.288Z,18.31
2022-09-04T01:05:45.625Z,18.28
2022-09-04T01:07:37.584Z,18.32
2022-09-04T01:09:34.933Z,18.31
2022-09-04T01:11:18.624Z,18.37
2022-09-04T01:13:02.394Z,18.38
2022-09-04T01:14:42.863Z,18.34
2022-09-04T01:16:22.821Z,18.35
2022-09-04T01:18:05.250Z,18.31
2022-09-04T01:19:49.900Z,18.32
2022-09-04T01:21:49.661Z,18.31
2022-09-04T01:23:53.794Z,18.34
2022-09-04T01:25:35.692Z,18.34
2022-09-04T01:27:20.225Z,18.36
2022-09-04T01:29:07.376Z,18.41
2022-09-04T01:30:50.585Z,18.43
2022-09-04T01:32:36.607Z,18.43
2022-09-04T01:34:24.517Z,18.39
2022-09-04T01:36:07.225Z,18.37
2022-09-04T01:37:52.647Z,18.33
2022-09-04T01:39:30.424Z,18.27
2022-09-04T01:41:14.728Z,18.29
2022-09-04T01:42:54.985Z,18.29
2022-09-04T01:44:28.382Z,18.23
2022-09-04T01:46:33.692Z,18.22
2022-09-04T01:48:10.540Z,18.13
2022-09-04T01:49:49.047Z,18.11
2022-09-04T01:51:27.501Z,18.09
2022-09-04T01:53:08.020Z,18.11
2022-09-04T01:54:54.964Z,18.13
2022-09-04T01:56:40.141Z,18.11
2022-09-04T01:58:24.301Z,18.12
2022-09-04T02:00:05.342Z,18.08
2022-09-04T02:01:47.096Z,18.08
2022-09-04T02:03:26.568Z,18.04
2022-09-04T02:05:09.435Z,18.05
2022-09-04T02:06:51.780Z,18.08
2022-09-04T02:08:36.817Z,18.06
2022-09-04T02:10:18.842Z,18.03
2022-09-04T02:12:03.830Z,18.00
2022-09-04T02:14:06.864Z,17.90
2022-09-04T02:15:48.229Z,17.82
2022-09-04T02:17:36.833Z,17.78
2022-09-04T02:19:23.247Z,17.71
2022-09-04T02:21:03.078Z,17.69
2022-09-04T02:22:46.293Z,17.67
2022-09-04T02:24:28.248Z,17.71
2022-09-04T02:26:12.341Z,17.71
2022-09-04T02:27:53.907Z,17.76
2022-09-04T02:29:36.529Z,17.76
2022-09-04T02:31:16.794Z,17.76
2022-09-04T02:33:01.106Z,17.79
2022-09-04T02:34:41.307Z,17.85
2022-09-04T02:36:21.516Z,17.86
2022-09-04T02:38:09.977Z,17.90
2022-09-04T02:40:04.697Z,17.94
2022-09-04T02:41:43.256Z,17.95
2022-09-04T02:43:35.690Z,17.92
2022-09-04T02:45:24.535Z,17.88
2022-09-04T02:47:05.905Z,17.81
2022-09-04T02:48:53.080Z,17.82
2022-09-04T02:50:46.388Z,17.83
2022-09-04T02:52:33.649Z,17.77
2022-09-04T02:54:15.877Z,17.75
2022-09-04T02:56:09.761Z,17.70
2022-09-04T02:57:57.509Z,17.70
2022-09-04T02:59:42.469Z,17.68
2022-09-04T03:01:25.912Z,17.68
2022-09-04T03:03:03.083Z,17.66
2022-09-04T03:04:50.219Z,17.63
2022-09-04T03:06:33.405Z,17.60
2022-09-04T03:08:14.444Z,17.56
2022-09-04T03:09:51.568Z,17.56
2022-09-04T03:11:29.938Z,17.48
2022-09-04T03:13:10.371Z,17.41
2022-09-04T03:14:50.282Z,17.35
2022-09-04T03:16:31.294Z,17.33
2022-09-04T03:18:07.633Z,17.35
2022-09-04T03:19:48.702Z,17.27
2022-09-04T03:21:25.281Z,17.23
2022-09-04T03:23:02.612Z,17.30
2022-09-04T03:24:45.423Z,17.32
2022-09-04T03:26:24.803Z,17.29
2022-09-04T03:27:57.153Z,17.27
2022-09-04T03:29:39.439Z,17.28
2022-09-04T03:31:25.111Z,17.30
2022-09-04T03:33:05.903Z,17.33
2022-09-04T03:34:50.187Z,17.30
2022-09-04T03:36:33.572Z,17.26
2022-09-04T03:38:20.933Z,17.21
2022-09-04T03:40:12.734Z,17.20
2022-09-04T03:41:56.374Z,17.22
2022-09-04T03:43:41.525Z,17.23
2022-09-04T03:45:26.117Z,17.23
2022-09-04T03:47:10.179Z,17.24
2022-09-04T03:49:13.151Z,17.20
2022-09-04T03:50:58.269Z,17.25
2022-09-04T03:52:39.006Z,17.31
2022-09-04T03:54:28.361Z,17.29
2022-09-04T03:56:36.039Z,17.30
2022-09-04T03:58:21.351Z,17.34
2022-09-04T04:00:09.176Z,17.35
2022-09-04T04:01:54.096Z,17.37
2022-09-04T04:03:36.243Z,17.36
2022-09-04T04:05:37.302Z,17.41
2022-09-04T04:07:21.865Z,17.46
2022-09-04T04:09:05.295Z,17.49
2022-09-04T04:10:53.064Z,17.52
2022-09-04T04:12:56.944Z,17.55
2022-09-04T04:15:04.515Z,17.58
2022-09-04T04:16:55.953Z,17.62
2022-09-04T04:18:54.298Z,17.73
2022-09-04T04:20:38.723Z,17.81
2022-09-04T04:22:35.388Z,17.78
2022-09-04T04:24:38.995Z,17.89
2022-09-04T04:26:22.382Z,17.99
2022-09-04T04:28:17.350Z,18.07
2022-09-04T04:30:04.346Z,18.10
2022-09-04T04:32:09.987Z,18.09
2022-09-04T04:33:55.600Z,18.11
2022-09-04T04:35:35.927Z,18.14
2022-09-04T04:37:14.642Z,17.96
2022-09-04T04:39:09.978Z,17.93
2022-09-04T04:41:02.327Z,17.98
2022-09-04T04:42:41.556Z,18.04
2022-09-04T04:44:18.448Z,18.08
2022-09-04T04:45:58.634Z,18.15
2022-09-04T04:47:55.206Z,18.24
2022-09-04T04:49:42.130Z,18.26
2022-09-04T04:51:40.943Z,18.35
2022-09-04T04:53:21.094Z,18.38
2022-09-04T04:55:06.458Z,18.41
2022-09-04T04:56:47.818Z,18.47
2022-09-04T04:58:42.652Z,18.49
2022-09-04T05:00:25.228Z,18.52
2022-09-04T05:02:07.960Z,18.64
2022-09-04T05:03:54.035Z,18.66
2022-09-04T05:05:47.852Z,18.70
2022-09-04T05:07:35.942Z,18.82
2022-09-04T05:09:17.740Z,18.86
2022-09-04T05:10:57.184Z,18.94
2022-09-04T05:12:52.534Z,18.99
2022-09-04T05:14:36.766Z,19.11
2022-09-04T05:16:19.864Z,19.19
2022-09-04T05:17:57.845Z,19.32
2022-09-04T05:19:37.349Z,19.38
2022-09-04T05:21:21.136Z,19.50
2022-09-04T05:23:06.539Z,19.58
2022-09-04T05:24:50.218Z,19.69
2022-09-04T05:26:38.126Z,19.94
2022-09-04T05:28:25.335Z,20.06
2022-09-04T05:30:03.523Z,20.32
2022-09-04T05:31:46.387Z,20.53
2022-09-04T05:33:26.816Z,20.61
2022-09-04T05:35:14.935Z,20.67
2022-09-04T05:36:58.984Z,20.73
2022-09-04T05:38:41.843Z,20.83
2022-09-04T05:40:24.717Z,21.02
2022-09-04T05:42:10.078Z,21.18
2022-09-04T05:44:07.954Z,21.30
2022-09-04T05:45:53.973Z,21.30
2022-09-04T05:47:43.500Z,21.26
2022-09-04T05:49:29.225Z,21.40
2022-09-04T05:51:49.923Z,21.35
2022-09-04T05:53:48.365Z,21.41
2022-09-04T05:55:55.287Z,21.59
2022-09-04T05:57:44.955Z,21.59
2022-09-04T05:59:36.354Z,21.88
2022-09-04T06:01:25.389Z,22.36
2022-09-04T06:03:23.280Z,23.01
2022-09-04T06:05:21.623Z,23.75
2022-09-04T06:07:04.092Z,24.46
2022-09-04T06:09:08.778Z,25.02
2022-09-04T06:10:56.605Z,25.45
2022-09-04T06:13:09.529Z,25.73
2022-09-04T06:15:02.134Z,26.20
2022-09-04T06:16:55.026Z,26.50
2022-09-04T06:18:59.949Z,26.64
2022-09-04T06:20:50.035Z,26.78
2022-09-04T06:22:39.997Z,26.97
2022-09-04T06:24:32.488Z,26.90
2022-09-04T06:26:19.185Z,27.09
2022-09-04T06:28:21.666Z,27.28
2022-09-04T06:30:13.049Z,27.39
2022-09-04T06:32:04.440Z,27.46
2022-09-04T06:33:50.227Z,27.69
2022-09-04T06:35:40.842Z,28.05
2022-09-04T06:37:26.123Z,28.33
2022-09-04T06:39:38.687Z,28.67
2022-09-04T06:41:35.755Z,29.01
2022-09-04T06:43:18.839Z,29.29
2022-09-04T06:45:04.862Z,29.61
2022-09-04T06:46:45.676Z,29.85
2022-09-04T06:48:29.733Z,29.83
2022-09-04T06:50:20.242Z,29.95
2022-09-04T06:52:07.619Z,29.44
2022-09-04T06:53:49.659Z,29.39
2022-09-04T06:55:30.915Z,29.49
2022-09-04T06:57:29.214Z,29.46
2022-09-04T06:59:24.429Z,29.05
2022-09-04T07:01:04.152Z,28.44
2022-09-04T07:02:59.836Z,27.90
2022-09-04T07:04:49.573Z,27.33
2022-09-04T07:06:32.583Z,26.86
2022-09-04T07:08:13.221Z,26.39
2022-09-04T07:09:51.107Z,25.94
2022-09-04T07:11:40.671Z,25.62
2022-09-04T07:13:42.135Z,25.43
2022-09-04T07:15:43.781Z,25.23
2022-09-04T07:17:25.687Z,24.97
2022-09-04T07:19:18.786Z,24.82
2022-09-04T07:21:00.926Z,24.65
2022-09-04T07:23:04.052Z,24.54
2022-09-04T07:24:51.225Z,24.41
2022-09-04T07:26:31.155Z,24.25
2022-09-04T07:28:16.803Z,24.10
2022-09-04T07:30:01.365Z,24.04
2022-09-04T07:31:40.744Z,24.09
2022-09-04T07:33:21.698Z,24.20
2022-09-04T07:35:02.300Z,24.26
2022-09-04T07:36:41.914Z,24.23
2022-09-04T07:38:24.602Z,24.25
2022-09-04T07:40:08.227Z,24.13
2022-09-04T07:41:48.266Z,24.13
2022-09-04T07:43:31.006Z,23.93
2022-09-04T07:45:11.784Z,23.82
2022-09-04T07:46:54.062Z,23.53
2022-09-04T07:48:34.981Z,23.36
2022-09-04T07:50:12.250Z,23.16
2022-09-04T07:51:53.076Z,23.08
2022-09-04T07:53:46.312Z,22.87
2022-09-04T07:55:31.565Z,22.67
2022-09-04T07:57:42.588Z,22.54
2022-09-04T07:59:40.670Z,22.41
2022-09-04T08:01:47.853Z,22.35
2022-09-04T08:03:53.882Z,22.24
2022-09-04T08:05:32.864Z,22.00
2022-09-04T08:07:11.858Z,21.90
2022-09-04T08:09:02.440Z,21.91
2022-09-04T08:10:43.116Z,21.85
2022-09-04T08:12:45.182Z,21.88
2022-09-04T08:14:27.780Z,21.88
2022-09-04T08:16:07.782Z,22.06
2022-09-04T08:17:57.849Z,22.19
2022-09-04T08:19:45.755Z,22.41
2022-09-04T08:21:27.200Z,22.42
2022-09-04T08:23:17.969Z,22.60
2022-09-04T08:25:12.939Z,22.74
2022-09-04T08:27:01.549Z,22.80
2022-09-04T08:28:47.966Z,22.86
2022-09-04T08:30:22.391Z,22.80
2022-09-04T08:32:10.897Z,22.77
2022-09-04T08:34:07.743Z,22.93
2022-09-04T08:35:53.784Z,23.04
2022-09-04T08:37:29.573Z,23.28
2022-09-04T08:39:12.260Z,23.40
2022-09-04T08:41:15.696Z,23.48
2022-09-04T08:43:23.748Z,23.39
2022-09-04T08:45:47.511Z,23.41
2022-09-04T08:47:54.388Z,23.55
2022-09-04T08:49:59.768Z,23.73
2022-09-04T08:52:12.321Z,23.73
2022-09-04T08:54:20.723Z,23.54
2022-09-04T08:56:10.439Z,23.56
2022-09-04T08:58:22.434Z,23.56
2022-09-04T09:00:06.975Z,23.60
2022-09-04T09:02:09.154Z,23.60
2022-09-04T09:04:19.906Z,23.85
2022-09-04T09:06:34.874Z,23.98
2022-09-04T09:08:37.960Z,24.10
2022-09-04T09:10:38.721Z,24.19
2022-09-04T09:12:51.232Z,24.19
2022-09-04T09:14:48.536Z,24.01
2022-09-04T09:16:25.946Z,23.98
2022-09-04T09:18:02.739Z,24.16
2022-09-04T09:19:47.333Z,24.14
2022-09-04T09:21:41.461Z,24.05
2022-09-04T09:23:21.075Z,24.24
2022-09-04T09:25:20.971Z,24.69
2022-09-04T09:27:19.705Z,25.23
2022-09-04T09:29:28.743Z,25.72
2022-09-04T09:31:43.347Z,25.78
2022-09-04T09:34:03.718Z,25.81
2022-09-04T09:36:12.238Z,25.74
2022-09-04T09:38:21.847Z,25.98
2022-09-04T09:40:34.337Z,26.02
2022-09-04T09:42:43.555Z,25.84
2022-09-04T09:44:52.363Z,25.76
2022-09-04T09:47:02.938Z,25.93
2022-09-04T09:49:14.796Z,26.10
2022-09-04T09:51:17.667Z,26.22
2022-09-04T09:53:38.626Z,25.96
2022-09-04T09:55:40.739Z,25.35
2022-09-04T09:57:45.666Z,25.06
2022-09-04T10:00:02.629Z,25.08
2022-09-04T10:02:12.116Z,24.95
2022-09-04T10:04:11.899Z,24.77
2022-09-04T10:06:29.793Z,24.61
2022-09-04T10:08:35.983Z,24.57
2022-09-04T10:10:45.846Z,24.81
2022-09-04T10:12:56.789Z,24.88
2022-09-04T10:15:06.375Z,24.84
2022-09-04T10:17:26.591Z,24.93
2022-09-04T10:19:39.324Z,24.79
2022-09-04T10:22:09.047Z,24.91
2022-09-04T10:24:14.928Z,24.97
2022-09-04T10:26:09.740Z,24.87
2022-09-04T10:28:16.934Z,24.93
2022-09-04T10:30:08.805Z,25.03
2022-09-04T10:32:14.771Z,25.41
2022-09-04T10:34:06.482Z,25.82
2022-09-04T10:35:56.872Z,25.88
2022-09-04T10:37:53.303Z,25.83
2022-09-04T10:39:56.920Z,26.05
2022-09-04T10:41:57.526Z,26.05
2022-09-04T10:43:57.014Z,25.89
2022-09-04T10:45:38.989Z,25.86
2022-09-04T10:47:31.976Z,25.71
2022-09-04T10:49:30.547Z,25.67
2022-09-04T10:51:22.167Z,25.57
2022-09-04T10:53:20.827Z,25.64
2022-09-04T10:55:18.768Z,25.71
2022-09-04T10:57:10.551Z,25.80
2022-09-04T10:59:09.882Z,25.69
2022-09-04T11:00:55.500Z,25.54
2022-09-04T11:03:13.098Z,25.47
2022-09-04T11:05:15.719Z,25.36
2022-09-04T11:07:28.953Z,25.41
2022-09-04T11:09:40.946Z,25.34
2022-09-04T11:11:25.733Z,25.34
2022-09-04T11:13:51.712Z,25.48
2022-09-04T11:15:42.075Z,25.53
2022-09-04T11:17:53.520Z,25.58
2022-09-04T11:20:05.275Z,25.55
2022-09-04T11:22:14.731Z,25.63
2022-09-04T11:24:38.216Z,25.47
2022-09-04T11:26:39.401Z,25.50
2022-09-04T11:29:02.109Z,25.22
2022-09-04T11:30:55.691Z,25.04
2022-09-04T11:32:56.299Z,24.95
2022-09-04T11:35:01.895Z,25.01
2022-09-04T11:37:12.405Z,25.03
2022-09-04T11:39:20.715Z,24.90
2022-09-04T11:41:33.100Z,24.77
2022-09-04T11:43:30.313Z,24.64
2022-09-04T11:45:36.346Z,24.62
2022-09-04T11:47:45.484Z,24.63
2022-09-04T11:49:55.394Z,24.84
2022-09-04T11:52:15.960Z,24.91
2022-09-04T11:54:33.610Z,24.90
2022-09-04T11:56:39.317Z,24.91
2022-09-04T11:58:40.819Z,24.99
2022-09-04T12:00:22.153Z,25.05
2022-09-04T12:02:18.769Z,25.09
2022-09-04T12:04:36.555Z,25.08
2022-09-04T12:06:39.007Z,25.10
2022-09-04T12:08:30.002Z,25.13
2022-09-04T12:10:38.578Z,25.19
2022-09-04T12:12:38.571Z,25.21
2022-09-04T12:14:24.845Z,25.22
2022-09-04T12:16:24.697Z,25.24
2022-09-04T12:18:37.646Z,25.22
2022-09-04T12:20:45.538Z,25.32
2022-09-04T12:22:56.232Z,25.57
2022-09-04T12:24:59.885Z,25.66
2022-09-04T12:26:59.907Z,25.57
2022-09-04T12:29:05.515Z,25.41
2022-09-04T12:30:58.637Z,25.16
2022-09-04T12:33:08.687Z,25.10
2022-09-04T12:35:03.446Z,25.01
2022-09-04T12:37:00.516Z,25.00
2022-09-04T12:39:08.926Z,24.98
2022-09-04T12:40:52.669Z,24.92
2022-09-04T12:42:33.521Z,24.83
2022-09-04T12:44:20.109Z,24.93
2022-09-04T12:46:11.024Z,25.02
2022-09-04T12:47:57.287Z,25.08
2022-09-04T12:49:58.295Z,25.15
2022-09-04T12:51:43.915Z,25.10
2022-09-04T12:53:44.995Z,25.11
2022-09-04T12:55:36.187Z,25.12
2022-09-04T12:57:24.738Z,25.27
2022-09-04T12:59:19.026Z,25.31
2022-09-04T13:01:10.803Z,25.38
2022-09-04T13:02:57.556Z,25.30
2022-09-04T13:04:38.826Z,25.26
2022-09-04T13:06:24.329Z,25.19
2022-09-04T13:08:05.271Z,25.09
2022-09-04T13:09:53.674Z,25.02
2022-09-04T13:11:45.587Z,25.01
2022-09-04T13:13:28.202Z,25.11
2022-09-04T13:15:23.006Z,25.15
2022-09-04T13:17:05.757Z,25.22
2022-09-04T13:18:55.235Z,25.11
2022-09-04T13:20:36.183Z,25.13
2022-09-04T13:22:21.993Z,25.13
2022-09-04T13:24:13.075Z,25.00
2022-09-04T13:26:02.251Z,25.00
2022-09-04T13:27:50.946Z,24.86
2022-09-04T13:29:40.459Z,24.91
2022-09-04T13:31:51.235Z,25.00
2022-09-04T13:33:49.051Z,25.05
2022-09-04T13:35:44.052Z,25.02
2022-09-04T13:37:25.014Z,25.12
2022-09-04T13:39:28.906Z,25.20
2022-09-04T13:41:36.736Z,25.22
2022-09-04T13:43:41.899Z,25.15
2022-09-04T13:45:24.415Z,25.06
2022-09-04T13:47:06.975Z,25.06
2022-09-04T13:48:55.316Z,25.07
2022-09-04T13:50:36.117Z,25.10
2022-09-04T13:52:26.460Z,25.11
2022-09-04T13:54:08.360Z,25.14
2022-09-04T13:55:49.981Z,25.08
2022-09-04T13:57:28.832Z,25.13
2022-09-04T13:59:10.577Z,25.02
2022-09-04T14:00:49.748Z,24.87
2022-09-04T14:02:26.484Z,24.86
2022-09-04T14:04:06.901Z,24.92
2022-09-04T14:05:41.269Z,24.82
2022-09-04T14:07:21.309Z,24.90
2022-09-04T14:09:04.608Z,24.92
2022-09-04T14:10:56.201Z,24.89
2022-09-04T14:12:54.158Z,24.91
2022-09-04T14:14:45.567Z,24.94
2022-09-04T14:16:23.170Z,24.90
2022-09-04T14:18:16.460Z,24.85
2022-09-04T14:20:02.841Z,24.79
2022-09-04T14:21:50.891Z,24.70
2022-09-04T14:23:34.009Z,24.70
2022-09-04T14:25:17.492Z,24.71
2022-09-04T14:26:57.640Z,24.65
2022-09-04T14:28:38.803Z,24.63
2022-09-04T14:30:16.231Z,24.58
2022-09-04T14:31:58.129Z,24.59
2022-09-04T14:33:43.398Z,24.58
2022-09-04T14:35:36.114Z,24.55
2022-09-04T14:37:26.262Z,24.60
2022-09-04T14:41:02.084Z,24.52
2022-09-04T14:42:47.901Z,24.52
2022-09-04T14:44:35.829Z,24.52
2022-09-04T14:46:19.278Z,24.56
2022-09-04T14:47:57.302Z,24.54
2022-09-04T14:49:32.144Z,24.49
2022-09-04T14:51:18.591Z,24.40
2022-09-04T14:52:56.435Z,24.36
2022-09-04T14:54:33.785Z,24.33
2022-09-04T14:56:36.503Z,24.34
2022-09-04T14:58:19.882Z,24.28
2022-09-04T15:00:04.509Z,24.30
2022-09-04T15:01:56.664Z,24.32
2022-09-04T15:03:35.309Z,24.22
2022-09-04T15:05:19.767Z,24.12
2022-09-04T15:07:11.228Z,24.14
2022-09-04T15:08:46.728Z,24.19
2022-09-04T15:10:26.006Z,24.22
2022-09-04T15:12:24.655Z,24.23
2022-09-04T15:14:04.993Z,24.22
2022-09-04T15:15:42.198Z,24.20
2022-09-04T15:17:28.495Z,24.21
2022-09-04T15:19:12.539Z,24.20
2022-09-04T15:20:57.381Z,24.19
2022-09-04T15:22:38.788Z,24.15
2022-09-04T15:24:22.210Z,24.12
2022-09-04T15:26:06.576Z,24.02
2022-09-04T15:27:50.920Z,24.08
2022-09-04T15:29:29.241Z,24.05
2022-09-04T15:31:15.904Z,24.02
2022-09-04T15:32:50.852Z,23.97
2022-09-04T15:34:27.906Z,23.98
2022-09-04T15:36:08.753Z,23.93
2022-09-04T15:37:48.351Z,23.90
2022-09-04T15:39:30.569Z,23.83
2022-09-04T15:41:19.917Z,23.92
2022-09-04T15:43:04.739Z,23.91
2022-09-04T15:44:43.621Z,23.84
2022-09-04T15:46:31.128Z,23.81
2022-09-04T15:48:26.618Z,23.74
2022-09-04T15:50:05.288Z,23.77
2022-09-04T15:51:47.583Z,23.76
2022-09-04T15:53:28.079Z,23.70
2022-09-04T15:55:10.634Z,23.69
2022-09-04T15:56:48.439Z,23.62
2022-09-04T15:58:29.397Z,23.56
2022-09-04T16:00:09.855Z,23.52
2022-09-04T16:01:52.247Z,23.51
2022-09-04T16:03:36.695Z,23.50
2022-09-04T16:05:20.557Z,23.48
2022-09-04T16:07:05.144Z,23.44
2022-09-04T16:08:47.158Z,23.43
2022-09-04T16:10:25.943Z,23.38
2022-09-04T16:12:07.168Z,23.33
2022-09-04T16:13:46.536Z,23.29
2022-09-04T16:15:24.277Z,23.27
2022-09-04T16:17:02.530Z,23.20
2022-09-04T16:18:48.386Z,23.18
2022-09-04T16:20:28.251Z,23.18
2022-09-04T16:22:10.662Z,23.21
2022-09-04T16:23:47.046Z,23.26
2022-09-04T16:25:29.274Z,23.26
2022-09-04T16:27:07.476Z,23.23
2022-09-04T16:28:45.644Z,23.15
2022-09-04T16:30:35.866Z,23.23
2022-09-04T16:32:12.299Z,23.21
2022-09-04T16:33:51.654Z,23.20
2022-09-04T16:35:25.777Z,23.16
2022-09-04T16:37:05.570Z,23.16
2022-09-04T16:38:48.788Z,23.12
2022-09-04T16:40:27.631Z,23.12
2022-09-04T16:42:13.893Z,23.10
2022-09-04T16:44:21.276Z,23.07
2022-09-04T16:46:09.980Z,23.08
2022-09-04T16:47:51.228Z,23.07
2022-09-04T16:49:31.271Z,22.98
2022-09-04T16:51:39.172Z,23.02
2022-09-04T16:53:17.632Z,22.95
2022-09-04T16:54:55.447Z,22.92
2022-09-04T16:56:36.991Z,22.89
2022-09-04T16:58:47.916Z,22.88
2022-09-04T17:00:22.525Z,22.83
2022-09-04T17:02:02.118Z,22.85
2022-09-04T17:03:43.003Z,22.79
2022-09-04T17:05:28.304Z,22.74
2022-09-04T17:07:13.252Z,22.62
2022-09-04T17:08:52.900Z,22.66
2022-09-04T17:10:37.021Z,22.63
2022-09-04T17:12:22.933Z,22.59
2022-09-04T17:14:08.545Z,22.60
2022-09-04T17:15:53.531Z,22.62
2022-09-04T17:17:31.019Z,22.63
2022-09-04T17:19:05.941Z,22.49
2022-09-04T17:23:57.675Z,22.52
2022-09-04T17:28:57.436Z,22.37
2022-09-04T17:28:59.807Z,22.46
2022-09-04T17:29:10.109Z,22.33
2022-09-04T17:29:29.546Z,22.33
2022-09-04T17:30:52.668Z,22.30
2022-09-04T17:32:32.181Z,22.25
2022-09-04T17:40:35.545Z,22.08
2022-09-04T17:40:35.641Z,22.19
2022-09-04T17:40:53.994Z,22.05
2022-09-04T17:41:40.012Z,22.02
2022-09-04T17:43:15.694Z,21.99
2022-09-04T17:44:54.400Z,21.96
2022-09-04T17:46:33.257Z,21.96
2022-09-04T17:48:21.576Z,21.93
2022-09-04T17:49:56.637Z,21.89
2022-09-04T17:51:33.933Z,21.87
2022-09-04T17:53:14.736Z,21.83
2022-09-04T17:55:07.520Z,21.87
2022-09-04T17:56:46.918Z,21.85
2022-09-04T17:58:33.181Z,21.87
2022-09-04T18:00:20.346Z,21.87
2022-09-04T18:02:01.607Z,21.87
2022-09-04T18:03:42.515Z,21.81
2022-09-04T18:05:53.115Z,21.78
2022-09-04T18:08:09.086Z,21.77
2022-09-04T18:09:37.128Z,21.77
2022-09-04T18:11:18.456Z,21.73
2022-09-04T18:13:00.849Z,21.63
2022-09-04T18:14:42.734Z,21.61
2022-09-04T18:16:27.171Z,21.56
2022-09-04T18:18:09.821Z,21.53
2022-09-04T18:19:46.642Z,21.51
2022-09-04T18:21:24.462Z,21.51
2022-09-04T18:23:31.777Z,21.49
2022-09-04T18:25:16.930Z,21.43
2022-09-04T18:26:59.100Z,21.42
2022-09-04T18:28:42.293Z,21.40
2022-09-04T18:36:17.334Z,21.40
2022-09-04T18:37:08.360Z,21.35
2022-09-04T18:37:13.150Z,21.33
2022-09-04T18:37:26.028Z,21.22
2022-09-04T18:38:20.675Z,21.16
2022-09-04T18:40:07.001Z,21.11
2022-09-04T18:50:24.272Z,21.10
2022-09-04T18:50:28.449Z,20.91
2022-09-04T18:50:32.005Z,20.96
2022-09-04T18:50:32.229Z,21.04
2022-09-04T18:50:40.777Z,21.02
2022-09-04T18:51:59.882Z,20.85
2022-09-04T18:53:39.451Z,20.82
2022-09-04T18:55:23.039Z,20.77
2022-09-04T18:57:06.394Z,20.75
2022-09-04T18:58:53.043Z,20.71
2022-09-04T19:00:31.337Z,20.68
2022-09-04T19:02:16.980Z,20.69
2022-09-04T19:03:55.741Z,20.68
2022-09-04T19:05:44.388Z,20.62
2022-09-04T19:07:32.054Z,20.62
2022-09-04T19:09:12.957Z,20.45
2022-09-04T19:10:50.991Z,20.55
2022-09-04T19:12:35.638Z,20.57
2022-09-04T19:14:25.328Z,20.57
2022-09-04T19:16:07.919Z,20.57
2022-09-04T19:17:44.382Z,20.54
2022-09-04T19:19:22.240Z,20.48
2022-09-04T19:21:19.296Z,20.43
2022-09-04T19:22:59.606Z,20.45
2022-09-04T19:24:41.377Z,20.48
2022-09-04T19:26:24.574Z,20.50
2022-09-04T19:28:03.864Z,20.49
2022-09-04T19:29:44.988Z,20.47
2022-09-04T19:31:24.296Z,20.50
2022-09-04T19:33:14.586Z,20.48
2022-09-04T19:34:52.674Z,20.48
2022-09-04T19:36:34.541Z,20.45
2022-09-04T19:39:15.481Z,20.43
2022-09-04T19:45:17.295Z,20.41
2022-09-04T19:46:09.037Z,20.39
2022-09-04T19:46:14.473Z,20.37
2022-09-04T19:46:29.521Z,20.35
2022-09-04T19:48:27.990Z,20.36
2022-09-04T19:53:22.501Z,20.36
2022-09-04T19:53:36.808Z,20.33
2022-09-04T19:54:11.103Z,20.36
2022-09-04T19:55:48.023Z,20.37
2022-09-04T19:57:32.857Z,20.36
2022-09-04T19:59:15.431Z,20.35
2022-09-04T20:00:55.641Z,20.31
2022-09-04T20:02:36.970Z,20.30
2022-09-04T20:04:26.623Z,20.27
2022-09-04T20:06:20.133Z,20.28
2022-09-04T20:07:59.582Z,20.29
2022-09-04T20:09:39.297Z,20.29
2022-09-04T20:11:34.566Z,20.26
2022-09-04T20:13:19.776Z,20.19
2022-09-04T20:14:59.579Z,20.17
2022-09-04T20:16:38.724Z,20.18
2022-09-04T20:18:19.807Z,20.18
2022-09-04T20:19:58.417Z,20.13
2022-09-04T20:21:45.197Z,20.04
2022-09-04T20:23:43.845Z,20.03
2022-09-04T20:25:32.264Z,20.03
2022-09-04T20:27:15.873Z,20.02
2022-09-04T20:29:07.842Z,20.00
2022-09-04T20:30:44.151Z,20.00
2022-09-04T20:32:23.097Z,19.97
2022-09-04T20:34:09.577Z,19.94
2022-09-04T20:35:51.035Z,19.93
2022-09-04T20:37:43.696Z,19.94
2022-09-04T20:39:24.724Z,19.94
2022-09-04T20:41:03.587Z,19.94
2022-09-04T20:42:41.914Z,19.97
2022-09-04T20:44:20.803Z,19.97
2022-09-04T20:49:25.911Z,19.98
2022-09-04T20:52:45.459Z,19.95
2022-09-04T20:52:54.579Z,19.96
2022-09-04T20:53:08.441Z,19.85
2022-09-04T20:55:00.197Z,19.87
2022-09-04T20:57:31.506Z,19.75
2022-09-04T21:03:05.812Z,19.70
2022-09-04T21:03:13.597Z,19.66
2022-09-04T21:03:23.855Z,19.66
2022-09-04T21:05:16.649Z,19.61
2022-09-04T21:06:56.948Z,19.64
2022-09-04T21:08:37.384Z,19.63
2022-09-04T21:10:19.183Z,19.62
2022-09-04T21:12:00.260Z,19.58
2022-09-04T21:13:38.715Z,19.52
2022-09-04T21:15:24.959Z,19.53
2022-09-04T21:17:33.798Z,19.51
2022-09-04T21:19:43.241Z,19.43
2022-09-04T21:21:51.208Z,19.52
2022-09-04T21:24:03.182Z,19.51
2022-09-04T21:25:50.527Z,19.50
2022-09-04T21:27:49.515Z,19.47
2022-09-04T21:29:37.216Z,19.44
2022-09-04T21:31:22.252Z,19.44
2022-09-04T21:33:32.287Z,19.43
2022-09-04T21:35:14.341Z,19.40
2022-09-04T21:36:55.380Z,19.39
2022-09-04T21:38:57.210Z,19.38
2022-09-04T21:41:09.528Z,19.39
2022-09-04T21:43:08.195Z,19.40
2022-09-04T21:45:16.664Z,19.38
2022-09-04T21:47:07.417Z,19.36
2022-09-04T21:48:57.511Z,19.35
2022-09-04T21:50:58.851Z,19.31
2022-09-04T21:52:55.960Z,19.28
2022-09-04T21:56:16.069Z,19.23
2022-09-04T22:02:32.339Z,19.12
2022-09-04T22:02:40.284Z,19.06
2022-09-04T22:02:48.050Z,19.03
2022-09-04T22:03:35.176Z,19.01
2022-09-04T22:05:18.544Z,18.99
2022-09-04T22:09:47.481Z,18.94
2022-09-04T22:13:29.153Z,18.88
2022-09-04T22:13:37.630Z,18.84
2022-09-04T22:13:39.071Z,18.79
2022-09-04T22:15:18.712Z,18.72
2022-09-04T22:17:30.267Z,18.71
2022-09-04T22:19:28.072Z,18.68
2022-09-04T22:21:18.018Z,18.53
2022-09-04T22:23:24.883Z,18.52
2022-09-04T22:25:14.649Z,18.48
2022-09-04T22:28:00.324Z,18.47
2022-09-04T22:30:08.887Z,18.50
2022-09-04T22:32:03.374Z,18.48
2022-09-04T22:34:16.479Z,18.46
2022-09-04T22:36:38.112Z,18.51
2022-09-04T22:38:33.224Z,18.59
2022-09-04T22:40:38.074Z,18.61
2022-09-04T22:42:40.244Z,18.60
2022-09-04T22:44:31.516Z,18.61
2022-09-04T22:46:40.197Z,18.63
2022-09-04T22:48:32.725Z,18.65
2022-09-04T22:50:49.273Z,18.56
2022-09-04T22:52:53.446Z,18.56
2022-09-04T22:54:51.857Z,18.53
2022-09-04T22:56:39.689Z,18.49
2022-09-04T22:58:27.765Z,18.46
2022-09-04T23:00:14.181Z,18.47
2022-09-04T23:02:14.138Z,18.50
2022-09-04T23:04:04.975Z,18.55
2022-09-04T23:06:32.479Z,18.56
2022-09-04T23:13:46.233Z,18.53
2022-09-04T23:13:48.604Z,18.53
2022-09-04T23:13:57.712Z,18.56
2022-09-04T23:14:53.901Z,18.55
2022-09-04T23:17:16.484Z,18.56
2022-09-04T23:22:50.623Z,18.55
2022-09-04T23:26:32.320Z,18.49
2022-09-04T23:26:43.577Z,18.55
2022-09-04T23:26:52.626Z,18.54
2022-09-04T23:27:56.201Z,18.53
2022-09-04T23:29:51.535Z,18.51
2022-09-04T23:31:48.860Z,18.51
2022-09-04T23:33:45.520Z,18.51
2022-09-04T23:35:32.090Z,18.53
2022-09-04T23:37:25.320Z,18.53
2022-09-04T23:39:31.194Z,18.53
2022-09-04T23:41:14.235Z,18.57
2022-09-04T23:43:32.007Z,18.60
2022-09-04T23:45:23.424Z,18.61
2022-09-04T23:47:47.186Z,18.62
2022-09-04T23:49:34.175Z,18.60